Time;durP1;ratioP1;P1;durP2;ratioP2;P2;SDS_P1;SDS_P2;PMS_P1;PMS_P2;Temp;Humidity;BMP_temperature;BMP_pressure;BME280_temperature;BME280_humidity;BME280_pressure;Samples;Min_cycle;Max_cycle;Signal;HPM_P1;HPM_P2
2024/01/07 00:02:05;;;;;;;15.17;7.33;;;-1.00;1.00;;;;;;10412822;28;20424;-79
2024/01/07 00:07:26;;;;;;;9.80;5.40;;;-1.00;1.00;;;;;;10381137;28;20202;-79
2024/01/07 00:12:49;;;;;;;12.43;5.37;;;-1.20;1.00;;;;;;10380943;28;20219;-79
2024/01/07 00:18:10;;;;;;;13.17;6.67;;;-1.10;1.00;;;;;;10408624;28;20218;-79
2024/01/07 00:23:32;;;;;;;9.47;5.20;;;-1.10;1.00;;;;;;10406285;28;20240;-79
2024/01/07 00:28:53;;;;;;;11.47;5.57;;;-1.10;1.00;;;;;;10421322;28;20200;-79
2024/01/07 00:34:14;;;;;;;8.30;5.17;;;-1.10;1.00;;;;;;10434862;28;20260;-80
2024/01/07 00:39:36;;;;;;;13.30;6.10;;;-1.10;1.00;;;;;;10407138;28;20194;-79
2024/01/07 00:44:57;;;;;;;7.50;4.90;;;-1.10;1.00;;;;;;10392804;28;20205;-79
2024/01/07 00:50:18;;;;;;;11.40;5.33;;;-1.00;1.00;;;;;;10419381;28;20194;-82
2024/01/07 00:55:40;;;;;;;14.33;7.10;;;-1.10;1.00;;;;;;10395374;28;20249;-80
2024/01/07 01:01:01;;;;;;;11.97;6.30;;;-1.20;1.00;;;;;;10394003;28;20197;-82
2024/01/07 01:06:23;;;;;;;11.03;4.87;;;-1.10;1.00;;;;;;10379920;28;20203;-82
2024/01/07 01:11:44;;;;;;;13.80;5.50;;;-1.10;1.00;;;;;;10393449;28;20205;-79
2024/01/07 01:17:06;;;;;;;17.37;6.17;;;-1.10;1.00;;;;;;10386622;28;20261;-79
2024/01/07 01:22:27;;;;;;;8.30;4.27;;;-1.20;1.00;;;;;;10406850;28;20512;-80
2024/01/07 01:27:48;;;;;;;8.97;4.43;;;-1.20;1.00;;;;;;10387300;28;20387;-82
2024/01/07 01:33:10;;;;;;;10.00;4.30;;;-1.30;1.00;;;;;;10386721;28;20417;-82
2024/01/07 01:38:31;;;;;;;12.20;5.17;;;-1.30;1.00;;;;;;10382546;28;20196;-82
2024/01/07 01:43:57;;;;;;;25.27;9.90;;;-1.30;1.00;;;;;;10435429;28;20281;-82
2024/01/07 01:49:19;;;;;;;33.73;13.13;;;-1.40;1.00;;;;;;10426308;28;20505;-81
2024/01/07 01:54:40;;;;;;;16.23;7.90;;;-1.50;1.00;;;;;;10400093;28;20243;-81
2024/01/07 02:00:04;;;;;;;19.20;8.50;;;-1.50;1.00;;;;;;10412845;28;20202;-79
2024/01/07 02:05:26;;;;;;;13.93;6.23;;;-1.50;1.00;;;;;;10440476;28;20251;-79
2024/01/07 02:10:47;;;;;;;10.60;5.80;;;-1.40;1.00;;;;;;10440567;28;20354;-78
2024/01/07 02:16:09;;;;;;;13.07;5.43;;;-1.30;1.00;;;;;;10411939;28;20321;-79
2024/01/07 02:21:30;;;;;;;23.53;8.33;;;-1.30;1.00;;;;;;10427323;28;20237;-79
2024/01/07 02:26:52;;;;;;;24.47;11.50;;;-1.30;1.00;;;;;;10424447;28;20276;-79
2024/01/07 02:32:13;;;;;;;39.77;12.20;;;-1.30;1.00;;;;;;10439566;28;20197;-79
2024/01/07 02:37:35;;;;;;;26.63;9.17;;;-1.30;1.00;;;;;;10425073;28;20197;-81
2024/01/07 02:42:56;;;;;;;16.73;6.63;;;-1.30;1.00;;;;;;10419140;28;20203;-81
2024/01/07 02:48:18;;;;;;;18.07;6.80;;;-1.40;1.00;;;;;;10397919;28;20463;-80
2024/01/07 02:53:39;;;;;;;17.80;6.07;;;-1.50;1.00;;;;;;10422371;28;20248;-80
2024/01/07 02:59:01;;;;;;;8.70;4.57;;;-1.50;1.00;;;;;;10413068;28;20201;-79
2024/01/07 03:04:22;;;;;;;9.43;4.70;;;-1.60;1.00;;;;;;10397130;28;20202;-79
2024/01/07 03:09:43;;;;;;;15.73;6.07;;;-1.50;1.00;;;;;;10382743;28;20205;-79
2024/01/07 03:15:08;;;;;;;7.10;3.80;;;-1.60;1.00;;;;;;10397101;28;20273;-79
2024/01/07 03:20:29;;;;;;;18.73;6.00;;;-1.80;1.00;;;;;;10399703;28;20223;-78
2024/01/07 03:25:50;;;;;;;23.27;6.70;;;-1.80;1.00;;;;;;10410502;28;20190;-79
2024/01/07 03:31:14;;;;;;;11.63;4.80;;;-1.90;1.00;;;;;;10368751;28;20548;-79
2024/01/07 03:36:35;;;;;;;64.50;16.70;;;-2.00;1.00;;;;;;10381895;28;20241;-78
2024/01/07 03:41:56;;;;;;;16.53;7.60;;;-2.00;1.00;;;;;;10416725;28;20232;-79
2024/01/07 03:47:18;;;;;;;22.20;7.87;;;-2.10;1.00;;;;;;10381951;28;20487;-79
2024/01/07 03:52:39;;;;;;;9.73;5.03;;;-2.10;1.00;;;;;;10392012;28;20224;-79
2024/01/07 03:58:00;;;;;;;10.27;5.77;;;-2.00;1.00;;;;;;10436602;28;20203;-79
2024/01/07 04:03:21;;;;;;;10.97;6.03;;;-2.00;1.00;;;;;;10450221;28;20367;-79
2024/01/07 04:08:43;;;;;;;12.87;5.50;;;-2.00;1.00;;;;;;10421705;28;20210;-79
2024/01/07 04:14:04;;;;;;;16.33;7.37;;;-2.00;1.00;;;;;;10403622;28;20225;-79
2024/01/07 04:19:25;;;;;;;13.10;6.23;;;-2.20;1.00;;;;;;10381037;28;20194;-79
2024/01/07 04:24:46;;;;;;;15.73;7.60;;;-2.10;1.00;;;;;;10399995;28;20209;-80
2024/01/07 04:30:09;;;;;;;12.60;6.43;;;-2.10;1.00;;;;;;10367017;28;20196;-79
2024/01/07 04:35:30;;;;;;;12.77;6.80;;;-2.30;1.00;;;;;;10394214;28;20235;-79
2024/01/07 04:40:51;;;;;;;14.73;7.10;;;-2.30;1.00;;;;;;10397335;28;20205;-78
2024/01/07 04:46:14;;;;;;;12.73;7.47;;;-2.20;1.00;;;;;;10412659;28;20227;-79
2024/01/07 04:51:38;;;;;;;11.47;6.43;;;-2.30;1.00;;;;;;10426042;28;20275;-79
2024/01/07 04:56:59;;;;;;;12.43;6.40;;;-2.40;1.00;;;;;;10402319;28;20246;-79
2024/01/07 05:02:20;;;;;;;8.57;5.40;;;-2.30;1.00;;;;;;10398579;28;20202;-79
2024/01/07 05:07:41;;;;;;;22.10;8.03;;;-2.40;1.00;;;;;;10406423;28;20211;-79
2024/01/07 05:13:05;;;;;;;10.50;5.57;;;-2.40;1.00;;;;;;10442568;28;20217;-79
2024/01/07 05:18:27;;;;;;;9.80;6.00;;;-2.50;1.00;;;;;;10428860;28;20204;-80
2024/01/07 05:23:48;;;;;;;13.83;7.20;;;-2.50;1.00;;;;;;10414145;28;20206;-79
2024/01/07 05:29:10;;;;;;;27.37;11.83;;;-2.60;1.00;;;;;;10441936;28;20204;-80
2024/01/07 05:34:32;;;;;;;27.93;11.00;;;-2.60;1.00;;;;;;10393340;28;20312;-80
2024/01/07 05:39:53;;;;;;;22.90;10.13;;;-2.60;1.00;;;;;;10421133;28;20199;-79
2024/01/07 05:45:15;;;;;;;14.97;8.23;;;-2.50;1.00;;;;;;10427088;28;20242;-79
2024/01/07 05:50:36;;;;;;;15.87;7.67;;;-2.50;1.00;;;;;;10440894;28;20223;-79
2024/01/07 05:55:57;;;;;;;11.33;6.73;;;-2.50;1.00;;;;;;10440563;28;20263;-79
2024/01/07 06:01:20;;;;;;;9.67;6.27;;;-2.60;1.00;;;;;;10419825;28;20283;-79
2024/01/07 06:06:41;;;;;;;12.07;7.90;;;-2.50;1.00;;;;;;10413318;28;20477;-79
2024/01/07 06:12:03;;;;;;;17.93;11.13;;;-2.40;1.00;;;;;;10385563;28;20243;-78
2024/01/07 06:17:24;;;;;;;22.93;12.40;;;-2.40;1.00;;;;;;10385330;28;20229;-81
2024/01/07 06:22:45;;;;;;;21.33;12.23;;;-2.40;1.00;;;;;;10415861;28;20420;-82
2024/01/07 06:28:10;;;;;;;140.17;51.40;;;-2.60;1.00;;;;;;10439897;28;20200;-79
2024/01/07 06:33:32;;;;;;;90.07;42.87;;;-2.70;1.00;;;;;;10414619;28;20220;-80
2024/01/07 06:38:53;;;;;;;22.17;12.00;;;-2.80;1.00;;;;;;10425142;28;20196;-78
2024/01/07 06:44:15;;;;;;;18.93;10.23;;;-2.90;1.00;;;;;;10438944;28;20250;-79
2024/01/07 06:49:36;;;;;;;21.00;8.80;;;-3.00;1.00;;;;;;10438757;28;20202;-78
2024/01/07 06:54:57;;;;;;;41.07;17.40;;;-3.10;1.00;;;;;;10410607;28;20245;-79
2024/01/07 07:00:19;;;;;;;78.53;36.03;;;-2.90;1.00;;;;;;10422532;28;20387;-79
2024/01/07 07:05:40;;;;;;;79.13;38.07;;;-3.10;1.00;;;;;;10397020;28;20213;-79
2024/01/07 07:11:03;;;;;;;74.97;38.97;;;-3.30;1.00;;;;;;10382591;28;20476;-78
2024/01/07 07:16:25;;;;;;;33.87;19.10;;;-3.40;1.00;;;;;;10382872;28;20231;-79
2024/01/07 07:21:46;;;;;;;59.67;28.77;;;-3.50;1.00;;;;;;10404642;28;20202;-79
2024/01/07 07:27:08;;;;;;;36.73;20.93;;;-3.50;1.00;;;;;;10423548;28;20376;-78
2024/01/07 07:32:29;;;;;;;52.13;26.17;;;-3.50;1.00;;;;;;10421023;28;20452;-79
2024/01/07 07:37:50;;;;;;;49.13;23.17;;;-3.50;1.00;;;;;;10399816;28;20423;-80
2024/01/07 07:43:12;;;;;;;48.03;23.10;;;-3.70;1.00;;;;;;10419624;28;20209;-79
2024/01/07 07:48:33;;;;;;;47.27;20.07;;;-3.70;1.00;;;;;;10395403;28;20251;-82
2024/01/07 07:53:55;;;;;;;57.37;28.87;;;-3.80;1.00;;;;;;10395641;28;20232;-81
2024/01/07 07:59:16;;;;;;;230.40;106.07;;;-3.90;1.00;;;;;;10411963;28;20439;-81
2024/01/07 08:04:37;;;;;;;108.53;47.27;;;-3.80;1.00;;;;;;10398803;28;20276;-79
2024/01/07 08:09:59;;;;;;;52.03;29.80;;;-3.70;1.00;;;;;;10395365;28;20245;-78
2024/01/07 08:15:20;;;;;;;36.77;16.33;;;-3.80;1.00;;;;;;10380629;28;20225;-78
2024/01/07 08:20:42;;;;;;;26.63;12.60;;;-3.90;1.00;;;;;;10367408;28;20193;-79
2024/01/07 08:26:03;;;;;;;28.50;12.03;;;-4.00;1.00;;;;;;10394775;28;20215;-80
2024/01/07 08:31:24;;;;;;;28.83;11.67;;;-3.90;1.00;;;;;;10370284;28;20203;-78
2024/01/07 08:36:46;;;;;;;89.93;27.90;;;-3.90;1.00;;;;;;10394606;28;20216;-79
2024/01/07 08:42:07;;;;;;;119.53;31.83;;;-3.90;1.00;;;;;;10419295;28;20494;-79
2024/01/07 08:47:29;;;;;;;90.40;25.87;;;-3.90;1.00;;;;;;10396557;28;20286;-79
2024/01/07 08:52:50;;;;;;;99.67;34.83;;;-3.90;1.00;;;;;;10405817;28;20200;-79
2024/01/07 08:58:12;;;;;;;93.00;41.33;;;-3.90;1.00;;;;;;10434813;28;20300;-79
2024/01/07 09:03:33;;;;;;;70.53;32.57;;;-3.90;1.00;;;;;;10383210;28;20207;-81
2024/01/07 09:08:54;;;;;;;72.13;26.57;;;-3.90;1.00;;;;;;10408052;28;20192;-81
2024/01/07 09:14:15;;;;;;;44.53;18.60;;;-3.80;1.00;;;;;;10393793;28;20208;-82
2024/01/07 09:19:37;;;;;;;62.07;22.23;;;-3.80;1.00;;;;;;10393444;28;20204;-81
2024/01/07 09:24:58;;;;;;;48.43;17.27;;;-3.70;1.00;;;;;;10427563;28;20281;-81
2024/01/07 09:30:19;;;;;;;59.17;20.20;;;-3.80;1.00;;;;;;10420066;28;20215;-81
2024/01/07 09:35:41;;;;;;;46.13;18.77;;;-4.00;1.00;;;;;;10396797;28;20435;-78
2024/01/07 09:41:03;;;;;;;42.77;16.67;;;-3.80;1.00;;;;;;10430620;28;20287;-79
2024/01/07 09:46:24;;;;;;;45.23;17.93;;;-3.80;1.00;;;;;;10427243;28;20200;-78
2024/01/07 09:51:47;;;;;;;54.40;19.90;;;-3.70;1.00;;;;;;10427215;28;20545;-79
2024/01/07 09:57:08;;;;;;;38.37;14.67;;;-3.50;1.00;;;;;;10440658;28;20280;-79
2024/01/07 10:02:29;;;;;;;25.87;12.23;;;-3.50;1.00;;;;;;10413822;28;20284;-79
2024/01/07 10:07:54;;;;;;;39.27;17.07;;;-3.80;1.00;;;;;;10401203;28;20219;-79
2024/01/07 10:13:15;;;;;;;51.03;18.53;;;-3.80;1.00;;;;;;10399543;28;20221;-79
2024/01/07 10:18:37;;;;;;;48.77;20.93;;;-3.90;1.00;;;;;;10399751;28;20240;-79
2024/01/07 10:24:11;;;;;;;53.60;20.40;;;-4.10;1.00;;;;;;10400662;28;20229;-79
2024/01/07 10:29:33;;;;;;;35.30;18.27;;;-4.20;1.00;;;;;;10399175;28;20198;-79
2024/01/07 10:35:06;;;;;;;76.97;35.40;;;-4.10;1.00;;;;;;10415837;28;20245;-79
2024/01/07 10:40:32;;;;;;;47.13;22.60;;;-3.80;1.00;;;;;;10423461;28;20192;-79
2024/01/07 10:45:55;;;;;;;47.27;18.03;;;-3.70;1.00;;;;;;10399464;28;20486;-78
2024/01/07 10:51:18;;;;;;;25.60;12.13;;;-3.70;1.00;;;;;;10384424;28;20197;-79
2024/01/07 10:56:48;;;;;;;35.77;14.90;;;-3.70;1.00;;;;;;10397265;28;20234;-79
2024/01/07 11:02:11;;;;;;;39.27;17.97;;;-3.70;1.00;;;;;;10407243;28;20250;-79
2024/01/07 11:07:40;;;;;;;40.73;17.67;;;-3.70;1.00;;;;;;10438834;28;20511;-79
2024/01/07 11:13:01;;;;;;;42.43;17.33;;;-3.70;1.00;;;;;;10438255;28;20243;-79
2024/01/07 11:18:23;;;;;;;33.20;13.43;;;-3.60;1.00;;;;;;10389331;28;20230;-79
2024/01/07 11:23:46;;;;;;;21.90;10.43;;;-2.30;1.00;;;;;;10420728;28;20206;-79
2024/01/07 11:29:09;;;;;;;40.53;15.00;;;-0.80;1.00;;;;;;10412306;28;20199;-79
2024/01/07 11:34:43;;;;;;;22.33;11.70;;;-1.30;1.00;;;;;;10410520;28;20465;-78
2024/01/07 11:40:06;;;;;;;25.50;11.27;;;-2.50;1.00;;;;;;10418361;28;20475;-79
2024/01/07 11:45:27;;;;;;;27.03;11.80;;;-3.00;1.00;;;;;;10415272;28;20202;-78
2024/01/07 11:50:49;;;;;;;31.03;11.97;;;-3.60;1.00;;;;;;10395980;28;20185;-78
2024/01/07 11:56:12;;;;;;;43.03;16.37;;;-3.90;1.00;;;;;;10408604;28;20320;-79
2024/01/07 12:01:33;;;;;;;44.60;15.40;;;-4.00;1.00;;;;;;10396065;28;20264;-79
2024/01/07 12:06:55;;;;;;;35.63;13.87;;;-4.00;1.00;;;;;;10430197;28;20202;-79
2024/01/07 12:12:16;;;;;;;34.63;13.70;;;-4.00;1.00;;;;;;10421964;28;20438;-78
2024/01/07 12:17:41;;;;;;;41.63;15.83;;;-3.60;1.00;;;;;;10435711;28;20232;-78
2024/01/07 12:23:07;;;;;;;34.23;14.67;;;-3.70;1.00;;;;;;10404313;28;20323;-79
2024/01/07 12:28:28;;;;;;;50.03;17.53;;;-3.90;1.00;;;;;;10401048;28;20197;-79
2024/01/07 12:33:51;;;;;;;34.07;13.40;;;-3.70;1.00;;;;;;10380837;28;20207;-79
2024/01/07 12:39:12;;;;;;;47.27;16.37;;;-3.70;1.00;;;;;;10408958;28;20202;-79
2024/01/07 12:44:34;;;;;;;68.47;21.20;;;-3.90;1.00;;;;;;10406695;28;20514;-78
2024/01/07 12:49:55;;;;;;;36.83;12.63;;;-4.20;1.00;;;;;;10394971;28;20231;-79
2024/01/07 12:55:16;;;;;;;48.67;14.70;;;-4.40;1.00;;;;;;10390208;28;20287;-79
2024/01/07 13:00:40;;;;;;;41.60;14.83;;;-4.50;1.00;;;;;;10395300;28;20196;-78
2024/01/07 13:06:01;;;;;;;47.63;13.70;;;-4.40;1.00;;;;;;10393535;28;20275;-78
2024/01/07 13:11:23;;;;;;;35.00;12.80;;;-4.30;1.00;;;;;;10384256;28;20201;-79
2024/01/07 13:16:44;;;;;;;29.37;10.77;;;-4.70;1.00;;;;;;10387540;28;20225;-78
2024/01/07 13:22:05;;;;;;;31.70;11.83;;;-4.80;1.00;;;;;;10398299;28;20203;-78
2024/01/07 13:27:27;;;;;;;30.10;10.97;;;-4.80;1.00;;;;;;10390468;28;20200;-79
2024/01/07 13:32:49;;;;;;;35.50;14.07;;;-4.80;1.00;;;;;;10387097;28;20276;-79
2024/01/07 13:38:10;;;;;;;29.20;11.30;;;-4.70;1.00;;;;;;10393398;28;20247;-81
2024/01/07 13:43:31;;;;;;;31.37;12.60;;;-4.80;1.00;;;;;;10421685;28;20203;-82
2024/01/07 13:48:53;;;;;;;34.03;13.63;;;;;;;;;;10440699;28;20551;-78
2024/01/07 13:54:14;;;;;;;29.77;12.30;;;-4.80;1.00;;;;;;10429274;28;20240;-79
2024/01/07 13:59:35;;;;;;;31.03;13.37;;;-4.90;1.00;;;;;;10402366;28;20253;-79
2024/01/07 14:04:57;;;;;;;34.93;15.07;;;-4.70;1.00;;;;;;10399767;28;20494;-81
2024/01/07 14:10:19;;;;;;;33.50;14.60;;;-4.80;1.00;;;;;;10399791;28;20213;-80
2024/01/07 14:15:43;;;;;;;30.93;12.63;;;-4.80;1.00;;;;;;10399575;28;20280;-81
2024/01/07 14:21:05;;;;;;;46.43;19.20;;;-4.90;1.00;;;;;;10386099;28;20277;-79
2024/01/07 14:26:26;;;;;;;42.73;15.37;;;-4.90;1.00;;;;;;10411030;28;20205;-79
2024/01/07 14:31:48;;;;;;;75.63;23.53;;;;;;;;;;10384843;28;20253;-79
2024/01/07 14:37:10;;;;;;;30.07;13.43;;;-5.20;1.00;;;;;;10398240;28;20229;-79
2024/01/07 14:42:31;;;;;;;31.07;14.73;;;-5.20;1.00;;;;;;10398085;28;20279;-79
2024/01/07 14:47:52;;;;;;;56.83;23.70;;;-5.30;1.00;;;;;;10408136;28;20875;-78
2024/01/07 14:53:15;;;;;;;54.23;22.60;;;-5.50;1.00;;;;;;10399374;28;20232;-81
2024/01/07 14:58:36;;;;;;;47.47;19.87;;;-5.40;1.00;;;;;;10411072;28;20254;-80
2024/01/07 15:03:58;;;;;;;39.83;15.03;;;-5.60;1.00;;;;;;10424552;28;20246;-80
2024/01/07 15:09:21;;;;;;;32.43;14.60;;;-5.50;1.00;;;;;;10438526;28;20216;-79
2024/01/07 15:14:43;;;;;;;45.50;18.37;;;-5.60;1.00;;;;;;10438020;28;20220;-79
2024/01/07 15:20:05;;;;;;;40.80;18.43;;;-5.60;1.00;;;;;;10420037;28;20207;-79
2024/01/07 15:25:26;;;;;;;43.97;18.53;;;-5.60;1.00;;;;;;10415641;28;20558;-78
2024/01/07 15:30:48;;;;;;;54.80;22.80;;;-5.50;1.00;;;;;;10410080;28;20195;-78
2024/01/07 15:36:09;;;;;;;45.43;18.90;;;-5.60;1.00;;;;;;10395886;28;20239;-79
2024/01/07 15:41:31;;;;;;;45.63;17.80;;;-5.70;1.00;;;;;;10389701;28;20193;-80
2024/01/07 15:46:52;;;;;;;35.73;18.83;;;-5.80;1.00;;;;;;10395682;28;20546;-78
2024/01/07 15:52:13;;;;;;;29.87;14.70;;;-5.90;1.00;;;;;;10402489;28;20200;-79
2024/01/07 15:57:36;;;;;;;28.67;14.47;;;-5.90;1.00;;;;;;10404117;28;20308;-79
2024/01/07 16:02:58;;;;;;;27.37;14.10;;;-6.10;1.00;;;;;;10395061;28;20203;-79
2024/01/07 16:08:20;;;;;;;37.60;15.90;;;-6.00;1.00;;;;;;10395213;28;20276;-81
2024/01/07 16:13:41;;;;;;;26.47;12.37;;;-6.00;1.00;;;;;;10394560;28;20198;-78
2024/01/07 16:19:04;;;;;;;25.07;11.77;;;-6.00;1.00;;;;;;10398389;28;20227;-78
2024/01/07 16:24:28;;;;;;;23.33;11.90;;;-6.10;1.00;;;;;;10414848;28;20197;-79
2024/01/07 16:29:50;;;;;;;59.27;20.77;;;-6.10;1.00;;;;;;10421348;28;20196;-79
2024/01/07 16:35:11;;;;;;;99.10;31.73;;;-6.30;1.00;;;;;;10411084;28;20403;-78
2024/01/07 16:40:32;;;;;;;70.63;24.60;;;-6.20;1.00;;;;;;10420123;28;20288;-78
2024/01/07 16:45:53;;;;;;;45.23;20.60;;;-6.20;1.00;;;;;;10403915;28;20495;-78
2024/01/07 16:51:15;;;;;;;63.30;24.20;;;-6.20;1.00;;;;;;10410347;28;20506;-78
2024/01/07 16:56:36;;;;;;;30.83;16.07;;;-6.30;1.00;;;;;;10395348;28;20238;-80
2024/01/07 17:01:58;;;;;;;28.27;13.67;;;-6.40;1.00;;;;;;10444460;28;20188;-79
2024/01/07 17:07:20;;;;;;;24.57;12.93;;;-6.40;1.00;;;;;;10455541;28;20206;-79
2024/01/07 17:12:41;;;;;;;24.47;12.73;;;-6.50;1.00;;;;;;10374076;28;20207;-79
2024/01/07 17:18:02;;;;;;;29.13;12.87;;;-6.40;1.00;;;;;;10387832;28;20470;-78
2024/01/07 17:23:23;;;;;;;34.90;15.83;;;-6.40;1.00;;;;;;10405551;28;20242;-79
2024/01/07 17:28:45;;;;;;;53.17;19.87;;;-6.40;1.00;;;;;;10441704;28;20499;-79
2024/01/07 17:34:07;;;;;;;43.60;20.03;;;-6.50;1.00;;;;;;10426698;28;20192;-79
2024/01/07 17:39:29;;;;;;;33.50;15.60;;;-6.50;1.00;;;;;;10430097;28;20192;-78
2024/01/07 17:44:51;;;;;;;34.03;16.37;;;-6.60;1.00;;;;;;10387217;28;20224;-78
2024/01/07 17:50:13;;;;;;;44.47;17.50;;;-6.50;1.00;;;;;;10409669;28;20398;-78
2024/01/07 17:55:36;;;;;;;52.43;19.57;;;-6.50;1.00;;;;;;10433823;28;20238;-79
2024/01/07 18:00:59;;;;;;;31.47;15.33;;;-6.50;1.00;;;;;;10427215;28;20515;-80
2024/01/07 18:06:20;;;;;;;87.80;27.30;;;-6.60;1.00;;;;;;10407914;28;20255;-80
2024/01/07 18:11:41;;;;;;;111.60;31.50;;;-6.60;1.00;;;;;;10399662;28;20235;-81
2024/01/07 18:17:03;;;;;;;135.43;40.07;;;-6.90;1.00;;;;;;10385807;28;20224;-80
2024/01/07 18:22:24;;;;;;;112.47;36.30;;;-6.60;59.30;;;;;;10398949;28;20197;-80
2024/01/07 18:27:46;;;;;;;138.67;44.70;;;-6.60;60.40;;;;;;10384797;28;20208;-81
2024/01/07 18:33:07;;;;;;;168.80;50.40;;;-6.60;99.90;;;;;;10385080;28;20189;-81
2024/01/07 18:38:28;;;;;;;51.83;21.17;;;-6.60;17.60;;;;;;10396705;28;20216;-80
2024/01/07 18:43:51;;;;;;;154.97;36.13;;;-6.80;1.00;;;;;;10425319;28;20392;-80
2024/01/07 18:49:12;;;;;;;72.73;22.67;;;-6.70;1.00;;;;;;10427528;28;20196;-80
2024/01/07 18:54:37;;;;;;;70.20;21.80;;;-6.80;1.00;;;;;;10438340;28;20327;-81
2024/01/07 18:59:59;;;;;;;61.57;20.53;;;-6.80;1.00;;;;;;10438664;28;20223;-81
2024/01/07 19:05:20;;;;;;;50.03;19.93;;;-6.90;1.00;;;;;;10415807;28;20213;-81
2024/01/07 19:10:43;;;;;;;51.47;19.50;;;-6.90;1.00;;;;;;10433111;28;20250;-80
2024/01/07 19:16:05;;;;;;;79.20;25.97;;;-6.80;1.00;;;;;;10396807;28;20355;-80
2024/01/07 19:21:27;;;;;;;67.23;22.97;;;-6.80;1.00;;;;;;10407753;28;20387;-81
2024/01/07 19:26:48;;;;;;;60.87;21.17;;;-6.80;1.00;;;;;;10416077;28;20237;-81
2024/01/07 19:32:09;;;;;;;57.97;22.17;;;-6.80;1.00;;;;;;10396588;28;20267;-81
2024/01/07 19:37:31;;;;;;;39.83;17.60;;;-6.80;1.00;;;;;;10416037;28;20227;-80
2024/01/07 19:42:53;;;;;;;47.83;18.50;;;-6.90;1.00;;;;;;10421726;28;20199;-79
2024/01/07 19:48:14;;;;;;;41.67;16.97;;;-6.80;1.00;;;;;;10404788;28;20216;-80
2024/01/07 19:53:35;;;;;;;37.43;16.77;;;-6.80;1.00;;;;;;10408996;28;20224;-80
2024/01/07 19:58:57;;;;;;;33.23;15.27;;;-6.80;1.00;;;;;;10408425;28;20228;-81
2024/01/07 20:04:18;;;;;;;34.97;15.43;;;-6.90;1.00;;;;;;10423485;28;20383;-80
2024/01/07 20:09:40;;;;;;;33.33;14.90;;;-6.90;1.00;;;;;;10405762;28;20204;-82
2024/01/07 20:15:02;;;;;;;33.40;15.43;;;-7.00;1.00;;;;;;10385984;28;20499;-82
2024/01/07 20:20:24;;;;;;;27.23;13.43;;;-6.90;1.00;;;;;;10434288;28;20345;-80
2024/01/07 20:25:47;;;;;;;32.33;15.13;;;-6.90;1.00;;;;;;10436059;28;20271;-80
2024/01/07 20:31:09;;;;;;;34.83;15.30;;;-7.00;1.00;;;;;;10421661;28;20200;-80
2024/01/07 20:36:31;;;;;;;48.33;19.47;;;-7.00;1.00;;;;;;10421089;28;20257;-80
2024/01/07 20:41:52;;;;;;;51.17;22.33;;;-7.00;1.00;;;;;;10421673;28;20192;-80
2024/01/07 20:47:13;;;;;;;106.23;33.40;;;-6.90;1.00;;;;;;10434749;28;20223;-80
2024/01/07 20:52:35;;;;;;;97.30;31.17;;;-6.80;1.00;;;;;;10397463;28;20200;-80
2024/01/07 20:57:56;;;;;;;76.93;24.17;;;-6.80;1.00;;;;;;10411254;28;20295;-80
2024/01/07 21:03:18;;;;;;;62.53;22.10;;;-6.80;1.00;;;;;;10411107;28;20208;-80
2024/01/07 21:08:39;;;;;;;77.37;23.63;;;-6.80;1.00;;;;;;10394041;28;20205;-80
2024/01/07 21:14:00;;;;;;;34.30;15.10;;;-6.80;1.00;;;;;;10396533;28;20487;-80
2024/01/07 21:19:21;;;;;;;33.90;13.17;;;-6.70;1.00;;;;;;10393490;28;20229;-80
2024/01/07 21:24:42;;;;;;;31.37;12.67;;;-6.60;1.00;;;;;;10393627;28;20204;-80
2024/01/07 21:30:04;;;;;;;58.63;18.63;;;-6.40;1.00;;;;;;10394510;28;20280;-79
2024/01/07 21:35:25;;;;;;;41.77;14.50;;;-6.30;1.00;;;;;;10400959;28;20406;-80
2024/01/07 21:40:50;;;;;;;41.90;15.63;;;-6.30;1.00;;;;;;10428307;28;20204;-80
2024/01/07 21:46:14;;;;;;;35.30;13.23;;;-6.20;1.00;;;;;;10424041;28;20188;-80
2024/01/07 21:51:36;;;;;;;38.00;14.20;;;-6.10;1.00;;;;;;10441516;28;20210;-80
2024/01/07 21:56:57;;;;;;;51.33;16.40;;;-5.90;1.00;;;;;;10441174;28;20263;-80
2024/01/07 22:02:19;;;;;;;28.93;12.17;;;-5.90;1.00;;;;;;10441245;28;20188;-80
2024/01/07 22:07:40;;;;;;;35.63;12.70;;;-5.90;1.00;;;;;;10455224;28;20188;-81
2024/01/07 22:13:01;;;;;;;37.33;12.80;;;-5.90;1.00;;;;;;10441123;28;20234;-81
2024/01/07 22:18:23;;;;;;;108.90;31.97;;;-6.00;1.00;;;;;;10402326;28;20304;-80
2024/01/07 22:23:45;;;;;;;63.90;16.63;;;-6.00;1.00;;;;;;10399304;28;20197;-80
2024/01/07 22:29:06;;;;;;;40.07;13.57;;;-5.90;1.00;;;;;;10413157;28;20244;-80
2024/01/07 22:34:27;;;;;;;42.17;13.53;;;-5.80;1.00;;;;;;10412926;28;20228;-81
2024/01/07 22:39:49;;;;;;;42.00;12.77;;;-5.80;1.00;;;;;;10418450;28;20233;-81
2024/01/07 22:45:10;;;;;;;41.03;13.20;;;-5.80;1.00;;;;;;10412696;28;20419;-80
2024/01/07 22:50:31;;;;;;;52.10;14.50;;;-5.80;1.00;;;;;;10396247;28;20888;-80
2024/01/07 22:55:53;;;;;;;29.47;10.23;;;-5.60;1.00;;;;;;10421690;28;20241;-80
2024/01/07 23:01:25;;;;;;;29.57;9.47;;;-5.60;1.00;;;;;;10383920;28;20247;-80
2024/01/07 23:06:46;;;;;;;25.80;9.90;;;-5.90;1.00;;;;;;10411809;28;20196;-81
2024/01/07 23:12:08;;;;;;;28.37;9.90;;;-6.00;1.00;;;;;;10397327;28;20555;-80
2024/01/07 23:17:29;;;;;;;37.33;13.03;;;-6.10;2.20;;;;;;10404720;28;20235;-80
2024/01/07 23:22:50;;;;;;;93.83;27.90;;;-6.00;26.30;;;;;;10397253;28;20224;-81
2024/01/07 23:28:13;;;;;;;49.83;16.83;;;-6.00;1.00;;;;;;10396782;28;20522;-80
2024/01/07 23:33:34;;;;;;;31.23;11.07;;;-5.90;1.00;;;;;;10396509;28;20491;-80
2024/01/07 23:38:56;;;;;;;26.13;8.73;;;-5.90;1.00;;;;;;10408874;28;20506;-80
2024/01/07 23:44:17;;;;;;;256.33;74.23;;;-6.00;1.00;;;;;;10422116;28;20231;-81
2024/01/07 23:49:38;;;;;;;67.47;18.63;;;-6.10;1.00;;;;;;10451361;28;20203;-77
2024/01/07 23:54:59;;;;;;;84.10;22.53;;;-6.20;3.80;;;;;;10437449;28;20311;-80
